createdAt,value
2019-02-06T00:00:26.722Z,19.70
2019-02-06T00:01:21.357Z,21.30
2019-02-06T00:02:20.340Z,21.10
2019-02-06T00:03:20.326Z,18.20
2019-02-06T00:04:20.313Z,19.80
2019-02-06T00:05:20.303Z,21.00
2019-02-06T00:06:20.288Z,20.40
2019-02-06T00:07:20.307Z,20.80
2019-02-06T00:08:20.270Z,20.70
2019-02-06T00:09:20.265Z,20.00
2019-02-06T00:10:20.251Z,20.90
2019-02-06T00:11:20.285Z,20.00
2019-02-06T00:12:20.241Z,22.80
2019-02-06T00:13:20.230Z,19.60
2019-02-06T00:14:20.203Z,21.40
2019-02-06T00:15:20.229Z,20.60
2019-02-06T00:16:20.187Z,18.80
2019-02-06T00:17:20.176Z,19.10
2019-02-06T00:18:20.211Z,21.50
2019-02-06T00:19:20.155Z,20.20
2019-02-06T00:20:20.138Z,18.40
2019-02-06T00:21:20.724Z,18.00
2019-02-06T00:22:20.121Z,21.50
2019-02-06T00:23:20.104Z,21.70
2019-02-06T00:24:20.109Z,18.70
2019-02-06T00:25:20.090Z,19.70
2019-02-06T00:26:20.173Z,19.70
2019-02-06T00:27:20.063Z,20.30
2019-02-06T00:28:20.059Z,19.10
2019-02-06T00:29:20.048Z,17.70
2019-02-06T00:30:20.041Z,20.00
2019-02-06T00:31:20.024Z,20.20
2019-02-06T00:32:20.113Z,20.60
2019-02-06T00:33:19.999Z,18.80
2019-02-06T00:34:19.993Z,19.30
2019-02-06T00:35:25.818Z,20.20
2019-02-06T00:36:20.976Z,19.00
2019-02-06T00:37:19.957Z,19.40
2019-02-06T00:38:19.951Z,21.40
2019-02-06T00:39:19.940Z,19.00
2019-02-06T00:40:19.987Z,18.90
2019-02-06T00:41:19.920Z,18.40
2019-02-06T00:42:19.903Z,19.50
2019-02-06T00:43:19.902Z,20.20
2019-02-06T00:44:19.885Z,18.70
2019-02-06T00:45:19.876Z,21.80
2019-02-06T00:46:19.869Z,20.30
2019-02-06T00:47:19.854Z,20.10
2019-02-06T00:48:19.839Z,19.70
2019-02-06T00:49:19.833Z,19.60
2019-02-06T00:50:19.817Z,19.70
2019-02-06T00:51:19.833Z,19.80
2019-02-06T00:52:19.798Z,20.70
2019-02-06T00:53:19.790Z,20.10
2019-02-06T00:54:19.783Z,19.80
2019-02-06T00:55:19.772Z,20.80
2019-02-06T00:56:19.752Z,20.00
2019-02-06T00:57:19.787Z,18.60
2019-02-06T00:58:19.732Z,21.00
2019-02-06T00:59:19.720Z,19.80
2019-02-06T01:00:19.711Z,18.80
2019-02-06T01:01:19.699Z,19.20
2019-02-06T01:02:19.689Z,18.80
2019-02-06T01:03:19.685Z,19.70
2019-02-06T01:04:19.667Z,18.40
2019-02-06T01:05:19.656Z,19.00
2019-02-06T01:06:19.651Z,19.00
2019-02-06T01:07:19.662Z,19.50
2019-02-06T01:08:19.630Z,21.10
2019-02-06T01:09:19.620Z,20.40
2019-02-06T01:10:19.605Z,21.70
2019-02-06T01:11:19.593Z,21.40
2019-02-06T01:12:19.588Z,18.10
2019-02-06T01:13:19.582Z,19.10
2019-02-06T01:14:19.561Z,18.10
2019-02-06T01:15:19.560Z,21.40
2019-02-06T01:16:19.539Z,19.20
2019-02-06T01:17:19.534Z,19.30
2019-02-06T01:18:19.560Z,18.80
2019-02-06T01:19:19.513Z,20.30
2019-02-06T01:20:19.502Z,19.70
2019-02-06T01:21:19.486Z,21.00
2019-02-06T01:22:19.480Z,20.10
2019-02-06T01:23:19.471Z,18.70
2019-02-06T01:24:19.472Z,19.00
2019-02-06T01:25:19.444Z,19.90
2019-02-06T01:26:19.433Z,18.00
2019-02-06T01:27:19.428Z,18.90
2019-02-06T01:28:19.419Z,17.70
2019-02-06T01:29:19.408Z,20.10
2019-02-06T01:30:19.392Z,19.30
2019-02-06T01:31:19.385Z,19.10
2019-02-06T01:32:19.374Z,18.20
2019-02-06T01:33:19.373Z,20.00
2019-02-06T01:34:19.385Z,18.80
2019-02-06T01:35:19.347Z,19.80
2019-02-06T01:36:19.330Z,20.50
2019-02-06T01:37:19.321Z,19.50
2019-02-06T01:38:19.310Z,20.80
2019-02-06T01:39:19.300Z,19.30
2019-02-06T01:40:19.298Z,19.90
2019-02-06T01:41:19.283Z,19.80
2019-02-06T01:42:19.272Z,18.90
2019-02-06T01:43:19.252Z,18.10
2019-02-06T01:44:19.240Z,18.90
2019-02-06T01:45:19.229Z,19.50
2019-02-06T01:46:19.234Z,19.40
2019-02-06T01:47:19.209Z,19.10
2019-02-06T01:48:19.204Z,18.30
2019-02-06T01:49:19.192Z,21.30
2019-02-06T01:50:19.189Z,20.90
2019-02-06T01:51:19.179Z,20.60
2019-02-06T01:52:19.161Z,18.90
2019-02-06T01:53:19.147Z,20.10
2019-02-06T01:54:19.138Z,21.40
2019-02-06T01:55:19.123Z,17.80
2019-02-06T01:56:19.112Z,19.10
2019-02-06T01:57:19.137Z,19.00
2019-02-06T01:58:19.095Z,19.80
2019-02-06T01:59:19.085Z,20.00
2019-02-06T02:00:19.070Z,20.40
2019-02-06T02:01:19.064Z,18.60
2019-02-06T02:02:19.051Z,21.60
2019-02-06T02:03:19.075Z,19.30
2019-02-06T02:04:19.033Z,19.10
2019-02-06T02:05:19.016Z,19.20
2019-02-06T02:06:19.006Z,19.60
2019-02-06T02:07:18.999Z,19.30
2019-02-06T02:08:19.006Z,19.10
2019-02-06T02:09:18.992Z,20.40
2019-02-06T02:10:18.962Z,19.90
2019-02-06T02:11:18.952Z,22.90
2019-02-06T02:12:18.943Z,19.60
2019-02-06T02:13:18.942Z,20.90
2019-02-06T02:14:18.928Z,19.70
2019-02-06T02:15:18.913Z,21.00
2019-02-06T02:16:18.897Z,22.00
2019-02-06T02:17:18.892Z,18.50
2019-02-06T02:18:18.876Z,20.80
2019-02-06T02:19:18.876Z,27.20
2019-02-06T02:20:18.855Z,22.90
2019-02-06T02:21:18.858Z,39.40
2019-02-06T02:22:18.840Z,28.70
2019-02-06T02:23:18.828Z,21.70
2019-02-06T02:24:18.864Z,19.50
2019-02-06T02:25:18.807Z,19.80
2019-02-06T02:26:18.791Z,21.50
2019-02-06T02:27:18.794Z,20.60
2019-02-06T02:28:18.774Z,20.10
2019-02-06T02:29:18.779Z,19.90
2019-02-06T02:30:18.757Z,20.40
2019-02-06T02:31:18.743Z,21.90
2019-02-06T02:32:18.729Z,20.10
2019-02-06T02:33:18.722Z,20.60
2019-02-06T02:34:18.713Z,19.60
2019-02-06T02:35:18.736Z,19.60
2019-02-06T02:36:18.690Z,22.20
2019-02-06T02:37:18.681Z,21.00
2019-02-06T02:38:18.672Z,17.90
2019-02-06T02:39:18.660Z,20.70
2019-02-06T02:40:18.644Z,21.10
2019-02-06T02:41:18.639Z,76.60
2019-02-06T02:42:18.629Z,54.20
2019-02-06T02:43:18.626Z,34.60
2019-02-06T02:44:18.607Z,52.60
2019-02-06T02:45:18.603Z,20.30
2019-02-06T02:46:18.594Z,21.00
2019-02-06T02:47:18.602Z,19.80
2019-02-06T02:48:18.558Z,20.10
2019-02-06T02:49:18.559Z,21.30
2019-02-06T02:50:18.544Z,20.00
2019-02-06T02:51:18.540Z,18.80
2019-02-06T02:52:18.553Z,21.20
2019-02-06T02:53:18.506Z,19.10
2019-02-06T02:54:18.500Z,21.20
2019-02-06T02:55:18.487Z,20.20
2019-02-06T02:56:18.480Z,21.20
2019-02-06T02:57:18.466Z,20.60
2019-02-06T02:58:18.461Z,20.30
2019-02-06T02:59:18.441Z,21.10
2019-02-06T03:00:18.437Z,19.60
2019-02-06T03:01:18.422Z,20.60
2019-02-06T03:02:18.410Z,21.60
2019-02-06T03:03:18.429Z,21.10
2019-02-06T03:04:18.392Z,21.60
2019-02-06T03:05:18.385Z,20.80
2019-02-06T03:06:27.628Z,22.30
2019-02-06T03:07:19.361Z,22.90
2019-02-06T03:08:18.349Z,19.60
2019-02-06T03:09:18.366Z,22.60
2019-02-06T03:10:18.331Z,21.30
2019-02-06T03:11:18.318Z,23.30
2019-02-06T03:12:18.303Z,23.20
2019-02-06T03:13:18.294Z,21.60
2019-02-06T03:14:18.284Z,20.40
2019-02-06T03:15:18.293Z,21.30
2019-02-06T03:16:18.260Z,22.70
2019-02-06T03:17:18.250Z,23.50
2019-02-06T03:18:18.239Z,21.20
2019-02-06T03:19:18.235Z,23.80
2019-02-06T03:20:18.264Z,24.00
2019-02-06T03:21:18.208Z,22.90
2019-02-06T03:22:18.204Z,24.70
2019-02-06T03:23:18.188Z,24.80
2019-02-06T03:24:18.183Z,25.10
2019-02-06T03:25:18.169Z,24.20
2019-02-06T03:26:18.165Z,21.20
2019-02-06T03:27:18.153Z,24.90
2019-02-06T03:28:18.134Z,23.80
2019-02-06T03:29:18.132Z,26.30
2019-02-06T03:30:18.138Z,23.80
2019-02-06T03:31:18.146Z,24.10
2019-02-06T03:32:18.102Z,23.30
2019-02-06T03:33:18.088Z,23.90
2019-02-06T03:34:18.080Z,27.00
2019-02-06T03:35:18.093Z,26.10
2019-02-06T03:36:18.053Z,26.30
2019-02-06T03:37:18.051Z,24.20
2019-02-06T03:38:18.124Z,26.50
2019-02-06T03:39:18.030Z,28.20
2019-02-06T03:40:18.007Z,27.30
2019-02-06T03:41:17.999Z,28.20
2019-02-06T03:42:17.992Z,29.40
2019-02-06T03:43:17.977Z,27.70
2019-02-06T03:44:17.962Z,28.20
2019-02-06T03:45:18.001Z,28.00
2019-02-06T03:46:17.943Z,26.40
2019-02-06T03:47:17.928Z,26.80
2019-02-06T03:48:20.510Z,30.60
2019-02-06T03:49:17.915Z,30.90
2019-02-06T03:50:17.903Z,29.10
2019-02-06T03:51:17.901Z,30.80
2019-02-06T03:52:17.879Z,29.40
2019-02-06T03:53:17.867Z,30.20
2019-02-06T03:54:17.863Z,31.40
2019-02-06T03:55:17.847Z,30.50
2019-02-06T03:56:17.835Z,32.70
2019-02-06T03:57:17.828Z,31.70
2019-02-06T03:58:17.812Z,29.80
2019-02-06T03:59:17.834Z,33.10
2019-02-06T04:00:17.868Z,31.40
2019-02-06T04:01:17.786Z,30.80
2019-02-06T04:02:17.774Z,30.40
2019-02-06T04:03:17.759Z,28.40
2019-02-06T04:04:17.751Z,29.80
2019-02-06T04:05:17.790Z,32.20
2019-02-06T04:06:17.732Z,30.00
2019-02-06T04:07:17.730Z,29.40
2019-02-06T04:08:17.709Z,30.70
2019-02-06T04:09:17.702Z,30.00
2019-02-06T04:10:17.684Z,30.60
2019-02-06T04:11:17.688Z,31.20
2019-02-06T04:12:17.671Z,30.10
2019-02-06T04:13:17.665Z,28.80
2019-02-06T04:14:17.648Z,29.50
2019-02-06T04:15:17.649Z,29.20
2019-02-06T04:16:17.662Z,29.20
2019-02-06T04:17:17.611Z,28.60
2019-02-06T04:18:17.611Z,29.50
2019-02-06T04:19:17.590Z,28.70
2019-02-06T04:20:17.583Z,27.10
2019-02-06T04:21:17.567Z,32.10
2019-02-06T04:22:17.566Z,32.20
2019-02-06T04:23:17.555Z,31.30
2019-02-06T04:24:17.541Z,28.80
2019-02-06T04:25:17.529Z,29.50
2019-02-06T04:26:17.515Z,31.30
2019-02-06T04:27:17.518Z,33.20
2019-02-06T04:28:17.499Z,29.00
2019-02-06T04:29:17.482Z,30.00
2019-02-06T04:30:17.483Z,31.30
2019-02-06T04:31:17.461Z,31.00
2019-02-06T04:32:17.451Z,30.80
2019-02-06T04:33:17.477Z,28.90
2019-02-06T04:34:17.435Z,30.20
2019-02-06T04:35:17.422Z,33.00
2019-02-06T04:36:17.412Z,30.30
2019-02-06T04:37:17.403Z,32.00
2019-02-06T04:38:17.391Z,32.00
2019-02-06T04:39:17.390Z,33.00
2019-02-06T04:40:17.373Z,32.10
2019-02-06T04:41:17.361Z,34.70
2019-02-06T04:42:17.351Z,31.70
2019-02-06T04:43:17.337Z,32.40
2019-02-06T04:44:17.340Z,36.60
2019-02-06T04:45:17.315Z,36.90
2019-02-06T04:46:17.310Z,32.80
2019-02-06T04:47:17.298Z,35.10
2019-02-06T04:48:17.280Z,34.90
2019-02-06T04:49:17.283Z,37.30
2019-02-06T04:50:17.260Z,33.90
2019-02-06T04:51:17.366Z,34.90
2019-02-06T04:52:17.241Z,35.50
2019-02-06T04:53:17.233Z,35.20
2019-02-06T04:54:17.249Z,35.50
2019-02-06T04:55:17.218Z,36.50
2019-02-06T04:56:17.202Z,35.70
2019-02-06T04:57:17.189Z,38.50
2019-02-06T04:58:17.176Z,37.20
2019-02-06T04:59:17.166Z,38.80
2019-02-06T05:00:17.169Z,39.80
2019-02-06T05:01:17.145Z,41.30
2019-02-06T05:02:17.133Z,38.70
2019-02-06T05:03:17.117Z,40.20
2019-02-06T05:04:17.109Z,40.10
2019-02-06T05:05:17.103Z,40.30
2019-02-06T05:06:17.093Z,40.20
2019-02-06T05:07:19.403Z,37.20
2019-02-06T05:08:17.066Z,42.60
2019-02-06T05:09:17.056Z,41.10
2019-02-06T05:10:17.048Z,43.20
2019-02-06T05:11:17.046Z,44.60
2019-02-06T05:12:17.026Z,43.60
2019-02-06T05:13:17.010Z,42.20
2019-02-06T05:14:17.006Z,45.00
2019-02-06T05:15:16.994Z,44.30
2019-02-06T05:16:17.046Z,42.40
2019-02-06T05:17:16.967Z,45.20
2019-02-06T05:18:16.958Z,42.70
2019-02-06T05:19:16.949Z,45.20
2019-02-06T05:20:16.936Z,44.80
2019-02-06T05:21:16.926Z,44.00
2019-02-06T05:22:16.937Z,43.80
2019-02-06T05:23:16.904Z,44.30
2019-02-06T05:24:16.893Z,44.70
2019-02-06T05:25:16.888Z,44.20
2019-02-06T05:26:16.871Z,42.00
2019-02-06T05:27:16.866Z,41.80
2019-02-06T05:28:18.259Z,43.90
2019-02-06T05:29:16.853Z,44.00
2019-02-06T05:30:16.839Z,43.60
2019-02-06T05:31:16.824Z,45.20
2019-02-06T05:32:16.813Z,48.60
2019-02-06T05:33:16.813Z,45.20
2019-02-06T05:34:16.791Z,46.70
2019-02-06T05:35:16.783Z,48.50
2019-02-06T05:36:16.775Z,42.50
2019-02-06T05:37:16.763Z,45.50
2019-02-06T05:38:16.761Z,44.40
2019-02-06T05:39:16.748Z,46.30
2019-02-06T05:40:16.735Z,44.60
2019-02-06T05:41:16.717Z,45.00
2019-02-06T05:42:16.710Z,44.00
2019-02-06T05:43:16.736Z,43.40
2019-02-06T05:44:16.686Z,44.50
2019-02-06T05:45:16.678Z,42.00
2019-02-06T05:46:16.668Z,45.10
2019-02-06T05:47:16.667Z,45.00
2019-02-06T05:48:16.648Z,45.50
2019-02-06T05:49:16.680Z,44.70
2019-02-06T05:50:16.654Z,45.60
2019-02-06T05:51:16.619Z,44.00
2019-02-06T05:52:16.718Z,45.40
2019-02-06T05:53:16.589Z,47.60
2019-02-06T05:54:16.580Z,43.00
2019-02-06T05:55:16.580Z,47.40
2019-02-06T05:56:16.567Z,46.20
2019-02-06T05:57:16.553Z,45.80
2019-02-06T05:58:16.554Z,45.80
2019-02-06T05:59:16.532Z,47.10
2019-02-06T06:00:16.535Z,45.80
2019-02-06T06:01:16.512Z,46.00
2019-02-06T06:02:16.495Z,46.00
2019-02-06T06:03:16.504Z,46.30
2019-02-06T06:04:16.478Z,46.50
2019-02-06T06:05:16.479Z,47.00
2019-02-06T06:06:16.457Z,49.50
2019-02-06T06:07:16.448Z,45.10
2019-02-06T06:08:16.438Z,45.40
2019-02-06T06:09:16.424Z,47.40
2019-02-06T06:10:16.426Z,47.20
2019-02-06T06:11:16.416Z,47.20
2019-02-06T06:12:16.390Z,47.10
2019-02-06T06:13:18.625Z,47.40
2019-02-06T06:14:16.379Z,48.00
2019-02-06T06:15:16.361Z,47.90
2019-02-06T06:16:16.359Z,46.80
2019-02-06T06:17:16.338Z,49.10
2019-02-06T06:18:16.332Z,48.60
2019-02-06T06:19:16.321Z,50.90
2019-02-06T06:20:16.306Z,49.90
2019-02-06T06:21:16.310Z,49.60
2019-02-06T06:22:16.299Z,48.10
2019-02-06T06:23:16.274Z,48.50
2019-02-06T06:24:16.284Z,46.60
2019-02-06T06:25:16.266Z,47.10
2019-02-06T06:26:16.246Z,47.40
2019-02-06T06:27:16.242Z,47.70
2019-02-06T06:28:16.235Z,50.00
2019-02-06T06:29:16.215Z,50.60
2019-02-06T06:30:16.205Z,47.50
2019-02-06T06:31:16.192Z,49.80
2019-02-06T06:32:16.181Z,49.40
2019-02-06T06:33:16.211Z,49.60
2019-02-06T06:34:16.159Z,50.50
2019-02-06T06:35:16.147Z,48.00
2019-02-06T06:36:16.142Z,48.10
2019-02-06T06:37:16.134Z,50.70
2019-02-06T06:38:16.119Z,50.80
2019-02-06T06:39:16.159Z,48.30
2019-02-06T06:40:16.102Z,49.50
2019-02-06T06:41:16.090Z,51.30
2019-02-06T06:42:16.081Z,52.30
2019-02-06T06:43:16.598Z,51.60
2019-02-06T06:44:16.066Z,50.40
2019-02-06T06:45:16.050Z,51.80
2019-02-06T06:46:16.038Z,49.90
2019-02-06T06:47:16.022Z,52.60
2019-02-06T06:48:16.014Z,48.80
2019-02-06T06:49:15.998Z,53.60
2019-02-06T06:50:16.001Z,51.90
2019-02-06T06:51:15.983Z,49.80
2019-02-06T06:52:15.972Z,50.50
2019-02-06T06:53:15.956Z,50.60
2019-02-06T06:54:15.946Z,52.90
2019-02-06T06:55:15.976Z,48.70
2019-02-06T06:56:15.926Z,52.30
2019-02-06T06:57:15.916Z,53.30
2019-02-06T06:58:15.905Z,48.90
2019-02-06T06:59:15.895Z,48.50
2019-02-06T07:00:15.881Z,50.60
2019-02-06T07:01:15.880Z,51.10
2019-02-06T07:02:15.866Z,53.00
2019-02-06T07:03:15.859Z,50.10
2019-02-06T07:04:15.840Z,48.40
2019-02-06T07:05:15.828Z,50.30
2019-02-06T07:06:15.832Z,51.30
2019-02-06T07:07:15.807Z,52.30
2019-02-06T07:08:15.801Z,51.20
2019-02-06T07:09:15.786Z,51.90
2019-02-06T07:10:15.775Z,51.70
2019-02-06T07:11:15.769Z,48.70
2019-02-06T07:12:15.772Z,49.50
2019-02-06T07:13:15.749Z,50.50
2019-02-06T07:14:15.736Z,49.30
2019-02-06T07:15:15.723Z,52.30
2019-02-06T07:16:15.718Z,54.30
2019-02-06T07:17:15.709Z,51.10
2019-02-06T07:18:15.701Z,54.40
2019-02-06T07:19:15.679Z,50.60
2019-02-06T07:20:15.676Z,54.60
2019-02-06T07:21:15.659Z,51.10
2019-02-06T07:22:15.662Z,50.60
2019-02-06T07:23:15.657Z,55.90
2019-02-06T07:24:15.628Z,52.20
2019-02-06T07:25:15.622Z,50.70
2019-02-06T07:26:15.610Z,50.70
2019-02-06T07:27:15.604Z,50.90
2019-02-06T07:28:15.599Z,49.40
2019-02-06T07:29:15.578Z,49.40
2019-02-06T07:30:15.565Z,49.30
2019-02-06T07:31:15.559Z,49.00
2019-02-06T07:32:15.547Z,49.40
2019-02-06T07:33:15.547Z,48.10
2019-02-06T07:34:15.527Z,51.20
2019-02-06T07:35:15.518Z,51.60
2019-02-06T07:36:15.515Z,49.00
2019-02-06T07:37:15.490Z,48.50
2019-02-06T07:38:23.941Z,50.90
2019-02-06T07:39:16.468Z,49.30
2019-02-06T07:40:15.463Z,46.60
2019-02-06T07:41:15.552Z,48.60
2019-02-06T07:42:15.439Z,49.00
2019-02-06T07:43:15.433Z,49.40
2019-02-06T07:44:15.428Z,51.40
2019-02-06T07:45:15.406Z,47.60
2019-02-06T07:46:15.399Z,50.50
2019-02-06T07:47:15.386Z,50.60
2019-02-06T07:48:15.380Z,46.80
2019-02-06T07:49:15.369Z,50.40
2019-02-06T07:50:15.361Z,48.70
2019-02-06T07:51:15.340Z,49.80
2019-02-06T07:52:15.332Z,49.60
2019-02-06T07:53:15.320Z,51.70
2019-02-06T07:54:15.332Z,52.60
2019-02-06T07:55:15.306Z,52.60
2019-02-06T07:56:15.299Z,51.50
2019-02-06T07:57:15.278Z,48.70
2019-02-06T07:58:15.266Z,48.30
2019-02-06T07:59:15.300Z,51.30
2019-02-06T08:00:15.248Z,45.70
2019-02-06T08:01:15.239Z,46.00
2019-02-06T08:02:15.224Z,47.60
2019-02-06T08:03:15.213Z,47.50
2019-02-06T08:04:15.207Z,51.40
2019-02-06T08:05:15.201Z,47.90
2019-02-06T08:06:15.180Z,44.40
2019-02-06T08:07:15.176Z,45.70
2019-02-06T08:08:15.171Z,49.50
2019-02-06T08:09:15.156Z,47.00
2019-02-06T08:10:15.144Z,46.90
2019-02-06T08:11:15.134Z,46.00
2019-02-06T08:12:15.126Z,43.80
2019-02-06T08:13:15.110Z,43.20
2019-02-06T08:14:15.134Z,45.20
2019-02-06T08:15:15.091Z,47.00
2019-02-06T08:16:15.073Z,46.80
2019-02-06T08:17:15.070Z,46.10
2019-02-06T08:18:15.059Z,44.70
2019-02-06T08:19:15.049Z,47.30
2019-02-06T08:20:15.073Z,45.40
2019-02-06T08:21:15.020Z,46.70
2019-02-06T08:22:15.010Z,47.60
2019-02-06T08:23:15.006Z,44.40
2019-02-06T08:24:14.994Z,42.90
2019-02-06T08:25:14.982Z,44.20
2019-02-06T08:26:15.018Z,43.00
2019-02-06T08:27:14.966Z,44.90
2019-02-06T08:28:14.951Z,42.70
2019-02-06T08:29:14.941Z,45.10
2019-02-06T08:30:14.932Z,44.00
2019-02-06T08:31:14.916Z,44.00
2019-02-06T08:32:14.911Z,43.90
2019-02-06T08:33:14.937Z,46.90
2019-02-06T08:34:14.886Z,44.30
2019-02-06T08:35:14.876Z,42.90
2019-02-06T08:36:14.873Z,44.60
2019-02-06T08:37:14.851Z,42.70
2019-02-06T08:38:14.839Z,43.40
2019-02-06T08:39:14.842Z,44.30
2019-02-06T08:40:14.818Z,46.30
2019-02-06T08:41:14.815Z,41.50
2019-02-06T08:42:14.802Z,43.20
2019-02-06T08:43:14.793Z,42.30
2019-02-06T08:44:14.789Z,40.00
2019-02-06T08:45:14.763Z,44.20
2019-02-06T08:46:14.761Z,45.30
2019-02-06T08:47:14.745Z,42.80
2019-02-06T08:48:14.729Z,43.10
2019-02-06T08:49:14.734Z,43.90
2019-02-06T08:50:14.709Z,42.50
2019-02-06T08:51:14.705Z,41.50
2019-02-06T08:52:14.689Z,43.00
2019-02-06T08:53:14.686Z,41.80
2019-02-06T08:54:14.705Z,41.90
2019-02-06T08:55:14.657Z,44.20
2019-02-06T08:56:14.647Z,39.90
2019-02-06T08:57:14.635Z,42.70
2019-02-06T08:58:14.630Z,40.80
2019-02-06T08:59:14.619Z,43.60
2019-02-06T09:00:14.623Z,38.70
2019-02-06T09:01:14.592Z,42.90
2019-02-06T09:02:14.602Z,40.20
2019-02-06T09:03:14.574Z,39.50
2019-02-06T09:04:14.565Z,40.40
2019-02-06T09:05:14.554Z,37.20
2019-02-06T09:06:14.580Z,37.00
2019-02-06T09:07:14.528Z,37.10
2019-02-06T09:08:14.521Z,39.80
2019-02-06T09:09:14.513Z,37.20
2019-02-06T09:10:14.496Z,37.30
2019-02-06T09:11:14.486Z,36.10
2019-02-06T09:12:14.491Z,36.30
2019-02-06T09:13:14.469Z,38.70
2019-02-06T09:14:14.460Z,37.20
2019-02-06T09:15:14.461Z,36.20
2019-02-06T09:16:14.451Z,35.70
2019-02-06T09:17:14.419Z,34.70
2019-02-06T09:18:14.409Z,37.80
2019-02-06T09:19:14.398Z,35.70
2019-02-06T09:20:14.386Z,34.00
2019-02-06T09:21:14.377Z,35.10
2019-02-06T09:22:14.377Z,34.40
2019-02-06T09:23:14.360Z,36.10
2019-02-06T09:24:14.350Z,34.40
2019-02-06T09:25:14.339Z,36.00
2019-02-06T09:26:14.322Z,35.70
2019-02-06T09:27:14.333Z,31.10
2019-02-06T09:28:14.310Z,34.50
2019-02-06T09:29:14.303Z,33.50
2019-02-06T09:30:14.285Z,32.80
2019-02-06T09:31:14.269Z,33.50
2019-02-06T09:32:14.258Z,32.60
2019-02-06T09:33:14.262Z,32.50
2019-02-06T09:34:14.237Z,32.30
2019-02-06T09:35:14.237Z,31.20
2019-02-06T09:36:14.221Z,30.60
2019-02-06T09:37:14.210Z,30.10
2019-02-06T09:38:14.199Z,32.80
2019-02-06T09:39:14.193Z,32.20
2019-02-06T09:40:14.172Z,32.60
2019-02-06T09:41:14.161Z,32.00
2019-02-06T09:42:14.158Z,35.30
2019-02-06T09:43:14.147Z,32.60
2019-02-06T09:44:14.177Z,32.00
2019-02-06T09:45:14.126Z,31.60
2019-02-06T09:46:14.115Z,31.10
2019-02-06T09:47:14.105Z,31.40
2019-02-06T09:48:14.091Z,32.20
2019-02-06T09:49:15.137Z,29.60
2019-02-06T09:50:14.078Z,29.20
2019-02-06T09:51:14.057Z,30.50
2019-02-06T09:52:14.043Z,29.40
2019-02-06T09:53:14.038Z,29.90
2019-02-06T09:54:14.025Z,29.60
2019-02-06T09:55:14.037Z,32.40
2019-02-06T09:56:14.000Z,29.50
2019-02-06T09:57:13.987Z,29.30
2019-02-06T09:58:13.985Z,30.20
2019-02-06T09:59:13.967Z,30.60
2019-02-06T10:00:13.958Z,29.80
2019-02-06T10:01:13.951Z,30.10
2019-02-06T10:02:13.937Z,28.60
2019-02-06T10:03:13.927Z,29.00
2019-02-06T10:04:13.912Z,30.00
2019-02-06T10:05:13.908Z,30.30
2019-02-06T10:06:13.925Z,29.60
2019-02-06T10:07:13.882Z,28.60
2019-02-06T10:08:13.867Z,29.30
2019-02-06T10:09:22.690Z,31.00
2019-02-06T10:10:14.849Z,31.20
2019-02-06T10:11:13.836Z,27.10
2019-02-06T10:12:13.840Z,28.70
2019-02-06T10:13:16.476Z,28.80
2019-02-06T10:14:13.803Z,27.00
2019-02-06T10:15:13.795Z,29.80
2019-02-06T10:16:13.807Z,28.20
2019-02-06T10:17:13.776Z,27.90
2019-02-06T10:18:13.766Z,28.70
2019-02-06T10:19:13.752Z,28.20
2019-02-06T10:20:13.740Z,29.90
2019-02-06T10:21:13.730Z,28.50
2019-02-06T10:22:13.723Z,30.30
2019-02-06T10:23:20.758Z,28.90
2019-02-06T10:24:13.703Z,27.80
2019-02-06T10:25:13.688Z,29.30
2019-02-06T10:26:13.678Z,28.90
2019-02-06T10:27:13.667Z,29.00
2019-02-06T10:28:13.658Z,28.00
2019-02-06T10:29:13.639Z,27.40
2019-02-06T10:30:13.635Z,27.50
2019-02-06T10:31:13.622Z,28.80
2019-02-06T10:32:13.613Z,29.50
2019-02-06T10:33:13.607Z,28.00
2019-02-06T10:34:13.594Z,26.70
2019-02-06T10:35:13.577Z,28.20
2019-02-06T10:36:13.569Z,26.80
2019-02-06T10:37:13.560Z,25.20
2019-02-06T10:38:13.565Z,26.10
2019-02-06T10:39:13.542Z,25.40
2019-02-06T10:40:13.524Z,26.10
2019-02-06T10:41:13.507Z,24.00
2019-02-06T10:42:13.497Z,23.60
2019-02-06T10:43:13.492Z,25.40
2019-02-06T10:44:13.518Z,22.80
2019-02-06T10:45:13.469Z,24.40
2019-02-06T10:46:13.453Z,24.20
2019-02-06T10:47:13.447Z,25.70
2019-02-06T10:48:13.438Z,25.00
2019-02-06T10:49:13.422Z,23.40
2019-02-06T10:50:13.439Z,23.30
2019-02-06T10:51:13.399Z,22.70
2019-02-06T10:52:13.388Z,23.90
2019-02-06T10:53:13.388Z,23.90
2019-02-06T10:54:14.665Z,22.90
2019-02-06T10:55:13.355Z,22.90
2019-02-06T10:56:13.358Z,22.10
2019-02-06T10:57:13.343Z,22.00
2019-02-06T10:58:13.324Z,21.10
2019-02-06T10:59:13.312Z,21.30
2019-02-06T11:00:13.301Z,21.60
2019-02-06T11:01:13.312Z,22.50
2019-02-06T11:02:13.289Z,20.30
2019-02-06T11:03:13.269Z,21.00
2019-02-06T11:04:13.267Z,21.40
2019-02-06T11:05:13.245Z,20.50
2019-02-06T11:06:13.247Z,22.00
2019-02-06T11:07:13.227Z,18.60
2019-02-06T11:08:13.220Z,18.60
2019-02-06T11:09:13.206Z,17.40
2019-02-06T11:10:13.192Z,19.50
2019-02-06T11:11:13.198Z,17.60
2019-02-06T11:12:13.173Z,18.30
2019-02-06T11:13:13.179Z,16.70
2019-02-06T11:14:13.154Z,17.40
2019-02-06T11:15:13.137Z,17.40
2019-02-06T11:16:13.133Z,17.70
2019-02-06T11:17:13.119Z,15.60
2019-02-06T11:18:13.157Z,17.40
2019-02-06T11:19:13.095Z,17.80
2019-02-06T11:20:13.085Z,18.00
2019-02-06T11:21:13.089Z,18.10
2019-02-06T11:22:13.069Z,19.10
2019-02-06T11:23:13.066Z,17.90
2019-02-06T11:24:13.050Z,17.90
2019-02-06T11:25:13.028Z,18.70
2019-02-06T11:26:13.025Z,16.80
2019-02-06T11:27:13.013Z,16.60
2019-02-06T11:28:13.012Z,16.40
2019-02-06T11:29:12.996Z,17.70
2019-02-06T11:30:12.974Z,17.60
2019-02-06T11:31:12.970Z,18.10
2019-02-06T11:32:12.958Z,18.20
2019-02-06T11:33:12.946Z,16.80
2019-02-06T11:34:12.960Z,15.90
2019-02-06T11:35:12.924Z,16.70
2019-02-06T11:36:23.543Z,15.40
2019-02-06T11:37:13.901Z,15.60
2019-02-06T11:38:12.903Z,15.40
2019-02-06T11:39:12.876Z,15.70
2019-02-06T11:40:15.270Z,17.20
2019-02-06T11:41:12.862Z,16.20
2019-02-06T11:42:12.849Z,16.40
2019-02-06T11:43:12.839Z,15.20
2019-02-06T11:44:12.825Z,15.20
2019-02-06T11:45:12.821Z,15.80
2019-02-06T11:46:12.802Z,14.90
2019-02-06T11:47:12.806Z,15.30
2019-02-06T11:48:12.810Z,15.00
2019-02-06T11:49:12.802Z,16.20
2019-02-06T11:50:12.789Z,16.10
2019-02-06T11:51:12.778Z,17.60
2019-02-06T11:52:12.741Z,15.90
2019-02-06T11:53:12.727Z,14.70
2019-02-06T11:54:12.714Z,16.40
2019-02-06T11:55:12.817Z,14.70
2019-02-06T11:56:12.708Z,15.10
2019-02-06T11:57:12.687Z,14.40
2019-02-06T11:58:12.692Z,13.60
2019-02-06T11:59:12.664Z,14.10
2019-02-06T12:00:12.655Z,15.40
2019-02-06T12:01:12.651Z,15.20
2019-02-06T12:02:12.627Z,16.90
2019-02-06T12:03:12.621Z,14.60
2019-02-06T12:04:12.611Z,13.70
2019-02-06T12:05:12.600Z,15.00
2019-02-06T12:06:12.620Z,15.00
2019-02-06T12:07:12.577Z,14.20
2019-02-06T12:08:12.901Z,14.60
2019-02-06T12:09:12.555Z,14.60
2019-02-06T12:10:12.540Z,15.80
2019-02-06T12:11:12.536Z,15.80
2019-02-06T12:12:12.527Z,14.60
2019-02-06T12:13:12.507Z,14.60
2019-02-06T12:14:12.503Z,13.90
2019-02-06T12:15:12.486Z,12.70
2019-02-06T12:16:12.528Z,15.30
2019-02-06T12:17:12.594Z,14.00
2019-02-06T12:18:12.453Z,13.90
2019-02-06T12:19:12.444Z,14.80
2019-02-06T12:20:12.433Z,15.40
2019-02-06T12:21:12.430Z,14.00
2019-02-06T12:22:12.411Z,13.50
2019-02-06T12:23:12.412Z,14.90
2019-02-06T12:24:12.387Z,14.30
2019-02-06T12:25:12.384Z,14.20
2019-02-06T12:26:12.365Z,12.50
2019-02-06T12:27:12.360Z,12.60
2019-02-06T12:28:12.399Z,13.20
2019-02-06T12:29:12.341Z,13.10
2019-02-06T12:30:12.322Z,12.80
2019-02-06T12:31:12.317Z,13.60
2019-02-06T12:32:12.311Z,13.90
2019-02-06T12:33:12.289Z,13.90
2019-02-06T12:34:12.292Z,12.70
2019-02-06T12:35:12.274Z,14.00
2019-02-06T12:36:12.257Z,12.80
2019-02-06T12:37:12.247Z,14.70
2019-02-06T12:38:12.239Z,14.80
2019-02-06T12:39:12.240Z,14.20
2019-02-06T12:40:21.007Z,14.00
2019-02-06T12:41:13.206Z,12.30
2019-02-06T12:42:12.196Z,15.40
2019-02-06T12:43:12.186Z,13.70
2019-02-06T12:44:12.295Z,14.20
2019-02-06T12:45:12.162Z,13.60
2019-02-06T12:46:12.156Z,13.60
2019-02-06T12:47:12.137Z,15.10
2019-02-06T12:48:12.135Z,13.40
2019-02-06T12:49:14.519Z,12.80
2019-02-06T12:50:12.124Z,12.40
2019-02-06T12:51:12.099Z,14.70
2019-02-06T12:52:12.087Z,13.40